Time;durP1;ratioP1;P1;durP2;ratioP2;P2;SDS_P1;SDS_P2;PMS_P1;PMS_P2;Temp;Humidity;BMP_temperature;BMP_pressure;BME280_temperature;BME280_humidity;BME280_pressure;Samples;Min_cycle;Max_cycle;Signal;HPM_P1;HPM_P2
2021/03/25 00:01:54;;;;;;;77.50;35.85;;;5.30;99.90;;;;;;4978800;28;20042;-78
2021/03/25 00:04:21;;;;;;;70.07;34.22;;;5.30;99.90;;;;;;4983532;28;20121;-78
2021/03/25 00:06:53;;;;;;;91.82;37.13;;;5.30;99.90;;;;;;4985853;28;20041;-78
2021/03/25 00:09:38;;;;;;;81.32;35.38;;;5.30;99.90;;;;;;4988173;28;20027;-78
2021/03/25 00:12:05;;;;;;;82.88;34.00;;;5.30;99.90;;;;;;4981797;28;20030;-78
2021/03/25 00:14:31;;;;;;;85.28;36.38;;;5.30;99.90;;;;;;4986608;28;20042;-78
2021/03/25 00:16:56;;;;;;;90.50;38.53;;;5.30;99.90;;;;;;4978806;28;20137;-78
2021/03/25 00:19:22;;;;;;;89.53;36.63;;;5.30;99.90;;;;;;4986999;28;20034;-78
2021/03/25 00:21:48;;;;;;;80.45;36.97;;;5.40;99.90;;;;;;4987068;28;20038;-78
2021/03/25 00:24:17;;;;;;;84.72;37.60;;;5.30;99.90;;;;;;4989090;28;20030;-78
2021/03/25 00:26:43;;;;;;;83.80;36.72;;;5.40;99.90;;;;;;4985690;28;20061;-78
2021/03/25 00:29:13;;;;;;;77.28;35.97;;;5.50;99.90;;;;;;4981307;28;20030;-78
2021/03/25 00:31:41;;;;;;;82.22;36.78;;;5.40;99.90;;;;;;4982611;28;20033;-78
2021/03/25 00:34:06;;;;;;;79.78;36.40;;;5.40;99.90;;;;;;4984616;28;20030;-78
2021/03/25 00:36:32;;;;;;;80.90;35.75;;;5.30;99.90;;;;;;4981464;28;20101;-78
2021/03/25 00:38:58;;;;;;;83.35;36.97;;;5.30;99.90;;;;;;4978288;28;20038;-78
2021/03/25 00:41:25;;;;;;;81.10;34.88;;;5.30;99.90;;;;;;4986539;28;20026;-78
2021/03/25 00:43:51;;;;;;;82.43;35.50;;;5.40;99.90;;;;;;4988350;28;20030;-78
2021/03/25 00:46:17;;;;;;;83.15;36.00;;;5.30;99.90;;;;;;4989369;28;20363;-78
2021/03/25 00:48:42;;;;;;;77.60;35.30;;;5.30;99.90;;;;;;4986687;28;20034;-78
2021/03/25 00:51:08;;;;;;;76.75;34.30;;;5.30;99.90;;;;;;4979140;28;20362;-78
2021/03/25 00:53:36;;;;;;;72.13;33.72;;;5.30;99.90;;;;;;4982031;28;20113;-78
2021/03/25 00:56:03;;;;;;;82.00;34.63;;;5.30;99.90;;;;;;4964462;28;20038;-78
2021/03/25 00:58:29;;;;;;;74.18;33.53;;;5.30;99.90;;;;;;4981908;28;20478;-78
2021/03/25 01:00:55;;;;;;;72.38;33.17;;;5.30;99.90;;;;;;4983377;28;20041;-78
2021/03/25 01:03:23;;;;;;;80.72;33.50;;;5.20;99.90;;;;;;4987693;28;20085;-78
2021/03/25 01:05:49;;;;;;;76.70;34.00;;;5.20;99.90;;;;;;4982910;28;20018;-78
2021/03/25 01:08:15;;;;;;;81.28;34.28;;;5.20;99.90;;;;;;4984797;28;20026;-78
2021/03/25 01:10:50;;;;;;;82.25;36.22;;;5.10;99.90;;;;;;4985690;28;20041;-78
2021/03/25 01:13:27;;;;;;;78.63;34.15;;;5.20;99.90;;;;;;4988331;28;20030;-78
2021/03/25 01:15:52;;;;;;;80.70;33.85;;;5.10;99.90;;;;;;4982768;28;20033;-78
2021/03/25 01:18:18;;;;;;;87.47;37.45;;;5.10;99.90;;;;;;4985376;28;20394;-78
2021/03/25 01:20:45;;;;;;;90.32;37.72;;;5.00;99.90;;;;;;4985837;28;20029;-78
2021/03/25 01:23:11;;;;;;;101.57;39.83;;;5.10;99.90;;;;;;4986341;28;20264;-78
2021/03/25 01:25:39;;;;;;;83.20;38.97;;;5.00;99.90;;;;;;4986432;28;20026;-78
2021/03/25 01:28:07;;;;;;;95.25;41.83;;;5.10;99.90;;;;;;4983838;28;20065;-78
2021/03/25 01:30:34;;;;;;;91.00;39.20;;;5.00;99.90;;;;;;4986046;28;20524;-79
2021/03/25 01:33:01;;;;;;;89.95;37.58;;;5.00;99.90;;;;;;4983216;28;20069;-78
2021/03/25 01:35:28;;;;;;;92.28;38.40;;;5.00;99.90;;;;;;4980042;28;20311;-79
2021/03/25 01:37:53;;;;;;;80.75;35.47;;;4.90;99.90;;;;;;4983291;28;20043;-78
2021/03/25 01:40:22;;;;;;;89.47;36.22;;;4.90;99.90;;;;;;4987489;28;20104;-78
2021/03/25 01:42:48;;;;;;;73.15;33.15;;;4.90;99.90;;;;;;4978416;28;20034;-78
2021/03/25 01:45:37;;;;;;;72.63;33.17;;;4.90;99.90;;;;;;4976685;28;20042;-78
2021/03/25 01:48:03;;;;;;;69.68;31.50;;;4.80;99.90;;;;;;4974226;28;20097;-78
2021/03/25 01:50:29;;;;;;;67.72;31.67;;;4.80;99.90;;;;;;4981184;28;20030;-78
2021/03/25 01:53:19;;;;;;;69.63;29.63;;;4.80;99.90;;;;;;4982303;28;20027;-78
2021/03/25 01:56:08;;;;;;;72.68;30.90;;;4.80;99.90;;;;;;4980753;28;20058;-78
2021/03/25 01:59:08;;;;;;;68.80;29.92;;;4.70;99.90;;;;;;4978042;28;20134;-78
2021/03/25 02:01:45;;;;;;;67.95;28.95;;;4.80;99.90;;;;;;4986175;28;20030;-78
2021/03/25 02:04:28;;;;;;;76.05;30.42;;;4.80;99.90;;;;;;4982617;28;20031;-78
2021/03/25 02:07:31;;;;;;;72.13;30.42;;;4.80;99.90;;;;;;4983449;28;20027;-78
2021/03/25 02:10:05;;;;;;;65.85;29.63;;;4.70;99.90;;;;;;4985316;28;20041;-78
2021/03/25 02:12:46;;;;;;;62.55;30.55;;;4.70;99.90;;;;;;4985893;28;20110;-78
2021/03/25 02:15:33;;;;;;;64.32;29.10;;;4.60;99.90;;;;;;4977265;28;20049;-78
2021/03/25 02:18:16;;;;;;;73.57;29.42;;;4.70;99.90;;;;;;4980615;28;20485;-78
2021/03/25 02:21:06;;;;;;;64.20;29.17;;;4.60;99.90;;;;;;4983972;28;20045;-78
2021/03/25 02:23:48;;;;;;;65.75;30.08;;;4.60;99.90;;;;;;4983221;28;20512;-78
2021/03/25 02:26:30;;;;;;;70.10;30.27;;;4.60;99.90;;;;;;4982315;28;20029;-78
2021/03/25 02:29:37;;;;;;;63.05;29.30;;;4.50;99.90;;;;;;4984401;28;20575;-78
2021/03/25 02:32:07;;;;;;;76.90;27.13;;;4.60;99.90;;;;;;4956229;28;20042;-78
2021/03/25 02:34:37;;;;;;;57.42;27.65;;;4.50;99.90;;;;;;4973140;28;20335;-79
2021/03/25 02:37:19;;;;;;;68.85;29.15;;;4.50;99.90;;;;;;4988776;28;20034;-78
2021/03/25 02:40:01;;;;;;;61.30;28.10;;;4.50;99.90;;;;;;4987105;28;20511;-78
2021/03/25 02:43:01;;;;;;;63.10;29.00;;;4.40;99.90;;;;;;4986049;28;20031;-78
2021/03/25 02:45:31;;;;;;;72.97;29.00;;;4.50;99.90;;;;;;4985191;28;20736;-79
2021/03/25 02:48:05;;;;;;;63.70;28.52;;;4.50;99.90;;;;;;4979521;28;20027;-79
2021/03/25 02:50:41;;;;;;;62.25;27.85;;;4.40;99.90;;;;;;4982866;28;20105;-78
2021/03/25 02:53:30;;;;;;;65.80;29.63;;;4.40;99.90;;;;;;4986310;28;20113;-78
2021/03/25 02:55:59;;;;;;;67.30;27.23;;;4.40;99.90;;;;;;4983363;28;20035;-78
2021/03/25 02:58:27;;;;;;;66.22;30.75;;;4.30;99.90;;;;;;4983480;28;20327;-78
2021/03/25 03:01:00;;;;;;;64.53;27.85;;;4.40;99.90;;;;;;4988215;28;20038;-78
2021/03/25 03:03:31;;;;;;;65.20;27.73;;;4.30;99.90;;;;;;4982932;28;20026;-79
2021/03/25 03:05:59;;;;;;;62.20;27.63;;;4.30;99.90;;;;;;4986767;28;20030;-79
2021/03/25 03:08:41;;;;;;;61.33;26.73;;;4.30;99.90;;;;;;4985484;28;20026;-78
2021/03/25 03:11:27;;;;;;;61.63;26.88;;;4.20;99.90;;;;;;4969907;28;20034;-78
2021/03/25 03:14:01;;;;;;;65.95;28.38;;;4.20;99.90;;;;;;4980468;28;20089;-79
2021/03/25 03:16:45;;;;;;;67.95;28.33;;;4.30;99.90;;;;;;4987825;28;20089;-78
2021/03/25 03:19:22;;;;;;;62.20;26.38;;;4.30;99.90;;;;;;4991567;28;20112;-78
2021/03/25 03:21:52;;;;;;;57.53;26.08;;;4.30;99.90;;;;;;4980878;28;20049;-78
2021/03/25 03:24:18;;;;;;;61.40;27.60;;;4.10;99.90;;;;;;4981457;28;20027;-79
2021/03/25 03:26:51;;;;;;;63.05;27.83;;;4.10;99.90;;;;;;4983887;28;20579;-78
2021/03/25 03:29:19;;;;;;;55.85;25.85;;;4.10;99.90;;;;;;4981169;28;20031;-79
2021/03/25 03:32:02;;;;;;;61.63;26.73;;;4.10;99.90;;;;;;4979218;28;20019;-78
2021/03/25 03:34:33;;;;;;;58.10;26.40;;;4.10;99.90;;;;;;4977496;28;20065;-78
2021/03/25 03:37:06;;;;;;;62.90;26.77;;;4.10;99.90;;;;;;4983296;28;20023;-78
2021/03/25 03:39:33;;;;;;;69.90;28.63;;;4.10;99.90;;;;;;4987869;28;20430;-80
2021/03/25 03:42:09;;;;;;;56.28;25.98;;;4.10;99.90;;;;;;4979726;28;20034;-78
2021/03/25 03:44:41;;;;;;;60.08;27.17;;;4.10;99.90;;;;;;4985752;28;20022;-78
2021/03/25 03:47:09;;;;;;;58.17;26.63;;;4.10;99.90;;;;;;4986117;28;20035;-78
2021/03/25 03:49:41;;;;;;;57.58;26.15;;;4.10;99.90;;;;;;4972102;28;20018;-78
2021/03/25 03:52:17;;;;;;;65.55;28.70;;;4.10;99.90;;;;;;4987945;28;20488;-78
2021/03/25 03:54:47;;;;;;;62.40;26.58;;;4.00;99.90;;;;;;4984002;28;20681;-78
2021/03/25 03:57:25;;;;;;;61.53;26.52;;;4.00;99.90;;;;;;4983984;28;20030;-78
2021/03/25 03:59:55;;;;;;;55.72;24.77;;;3.90;99.90;;;;;;4988005;28;20042;-78
2021/03/25 04:02:35;;;;;;;54.58;26.10;;;4.00;99.90;;;;;;4978376;28;20041;-78
2021/03/25 04:05:19;;;;;;;51.00;24.95;;;4.00;99.90;;;;;;4985666;28;20018;-77
2021/03/25 04:07:54;;;;;;;50.80;23.30;;;4.00;99.90;;;;;;4981991;28;20039;-78
2021/03/25 04:10:28;;;;;;;57.08;26.58;;;3.90;99.90;;;;;;4987775;28;20026;-77
2021/03/25 04:12:58;;;;;;;57.05;24.83;;;4.00;99.90;;;;;;4980586;28;20046;-77
2021/03/25 04:15:29;;;;;;;55.75;25.58;;;3.90;99.90;;;;;;4979429;28;20077;-78
2021/03/25 04:18:34;;;;;;;56.42;25.05;;;4.00;99.90;;;;;;4983499;28;20030;-78
2021/03/25 04:21:16;;;;;;;62.22;24.92;;;3.90;99.90;;;;;;4985650;28;20414;-77
2021/03/25 04:23:44;;;;;;;57.70;26.58;;;3.90;99.90;;;;;;4983512;28;20038;-78
2021/03/25 04:26:28;;;;;;;54.65;24.45;;;3.90;99.90;;;;;;4978617;28;20034;-78
2021/03/25 04:29:09;;;;;;;58.50;25.95;;;3.90;99.90;;;;;;4981429;28;20038;-77
2021/03/25 04:31:35;;;;;;;;;;;3.80;99.90;;;;;;4988464;28;20489;-78
2021/03/25 04:34:02;;;;;;;59.92;26.40;;;3.80;99.90;;;;;;4986988;28;20004;-78
2021/03/25 04:36:37;;;;;;;60.30;25.63;;;3.80;99.90;;;;;;4987484;28;20064;-78
2021/03/25 04:39:06;;;;;;;59.22;25.70;;;3.80;99.90;;;;;;4984353;28;20188;-77
2021/03/25 04:41:33;;;;;;;54.80;24.45;;;3.70;99.90;;;;;;4980538;28;20061;-78
2021/03/25 04:44:02;;;;;;;59.45;26.75;;;3.50;99.90;;;;;;4986675;28;20082;-77
2021/03/25 04:46:45;;;;;;;81.80;31.55;;;3.50;99.90;;;;;;4988491;28;20049;-77
2021/03/25 04:49:17;;;;;;;78.30;32.30;;;3.50;99.90;;;;;;4981863;28;20398;-77
2021/03/25 04:51:43;;;;;;;74.43;31.38;;;3.60;99.90;;;;;;4975801;28;20110;-78
2021/03/25 04:54:12;;;;;;;89.97;35.30;;;3.60;99.90;;;;;;4987226;28;20121;-78
2021/03/25 04:56:38;;;;;;;84.80;33.33;;;3.60;99.90;;;;;;4980167;28;20121;-78
2021/03/25 04:59:05;;;;;;;75.40;31.58;;;3.60;99.90;;;;;;4977038;28;20030;-78
2021/03/25 05:01:32;;;;;;;70.53;29.45;;;3.60;99.90;;;;;;4986597;28;20030;-78
2021/03/25 05:04:04;;;;;;;69.18;28.30;;;3.60;99.90;;;;;;4967407;28;20051;-78
2021/03/25 05:06:42;;;;;;;66.72;28.10;;;3.60;99.90;;;;;;4982151;28;20030;-78
2021/03/25 05:09:13;;;;;;;60.17;26.95;;;3.60;99.90;;;;;;4986985;28;20030;-78
2021/03/25 05:11:39;;;;;;;64.95;26.52;;;3.60;99.90;;;;;;4984753;28;20026;-78
2021/03/25 05:14:15;;;;;;;63.83;25.83;;;3.60;99.90;;;;;;4981850;28;20125;-78
2021/03/25 05:17:02;;;;;;;54.72;24.05;;;3.60;99.90;;;;;;4984377;28;20045;-78
2021/03/25 05:19:46;;;;;;;57.28;24.88;;;3.60;99.90;;;;;;4983688;28;20573;-78
2021/03/25 05:22:20;;;;;;;56.72;24.60;;;3.60;99.90;;;;;;4982571;28;20385;-78
2021/03/25 05:24:48;;;;;;;58.25;24.25;;;3.60;99.90;;;;;;4986143;28;20085;-79
2021/03/25 05:27:38;;;;;;;47.58;24.00;;;3.50;99.90;;;;;;4984599;28;20026;-78
2021/03/25 05:30:15;;;;;;;58.40;24.60;;;3.50;99.90;;;;;;4987032;28;20034;-78
2021/03/25 05:32:46;;;;;;;54.55;25.33;;;3.60;99.90;;;;;;4984754;28;20104;-78
2021/03/25 05:35:19;;;;;;;66.65;25.63;;;3.60;99.90;;;;;;4984516;28;20026;-78
2021/03/25 05:37:46;;;;;;;55.58;25.10;;;3.70;99.90;;;;;;4979692;28;20042;-78
2021/03/25 05:40:25;;;;;;;52.42;23.90;;;3.70;99.90;;;;;;4983288;28;20342;-78
2021/03/25 05:43:08;;;;;;;57.17;25.55;;;3.70;99.90;;;;;;4985430;28;20045;-79
2021/03/25 05:45:57;;;;;;;63.65;25.35;;;3.70;99.90;;;;;;4987195;28;20030;-78
2021/03/25 05:49:11;;;;;;;53.20;24.15;;;3.70;99.90;;;;;;4982298;28;20393;-78
2021/03/25 05:52:08;;;;;;;57.22;24.60;;;3.70;99.90;;;;;;4962040;28;20485;-81
2021/03/25 05:54:48;;;;;;;56.90;24.80;;;3.80;99.90;;;;;;4956226;28;20034;-80
2021/03/25 05:57:27;;;;;;;54.03;23.90;;;3.70;99.90;;;;;;4982084;28;20030;-80
2021/03/25 06:00:17;;;;;;;60.50;26.80;;;3.80;99.90;;;;;;4956816;28;20501;-79
2021/03/25 06:02:47;;;;;;;54.73;24.40;;;3.80;99.90;;;;;;4973315;28;20035;-80
2021/03/25 06:05:13;;;;;;;62.90;25.63;;;3.90;99.90;;;;;;4986273;28;20037;-79
2021/03/25 06:07:57;;;;;;;56.70;23.90;;;4.10;99.90;;;;;;4984922;28;20054;-80
2021/03/25 06:10:25;;;;;;;58.10;24.13;;;4.10;99.90;;;;;;4987504;28;20026;-80
2021/03/25 06:13:31;;;;;;;61.42;25.17;;;4.20;99.90;;;;;;4983720;28;20036;-80
2021/03/25 06:16:18;;;;;;;54.70;23.70;;;4.20;99.90;;;;;;4984567;28;20034;-76
2021/03/25 06:19:02;;;;;;;53.35;24.10;;;4.30;99.90;;;;;;4986837;28;20089;-78
2021/03/25 06:21:51;;;;;;;52.67;23.35;;;4.30;99.90;;;;;;4985419;28;20050;-78
2021/03/25 06:24:41;;;;;;;56.45;24.02;;;4.40;99.90;;;;;;4988072;28;20041;-76
2021/03/25 06:27:34;;;;;;;48.88;24.67;;;4.50;99.90;;;;;;4982576;28;20032;-76
2021/03/25 06:30:08;;;;;;;66.78;24.83;;;4.60;99.90;;;;;;4987741;28;20022;-86
2021/03/25 06:32:39;;;;;;;55.25;24.08;;;4.70;99.90;;;;;;4988779;28;20089;-88
2021/03/25 06:35:42;;;;;;;55.60;23.75;;;4.80;99.90;;;;;;4988755;28;20050;-89
2021/03/25 06:38:17;;;;;;;55.92;24.30;;;5.00;99.90;;;;;;4958353;28;20116;-90
2021/03/25 06:41:00;;;;;;;51.97;24.20;;;5.00;99.90;;;;;;4988697;28;20034;-89
2021/03/25 06:43:33;;;;;;;50.30;24.83;;;5.10;99.90;;;;;;4985690;28;20118;-86
2021/03/25 06:46:23;;;;;;;58.80;25.45;;;5.20;99.90;;;;;;4987845;28;20449;-89
2021/03/25 06:48:59;;;;;;;55.47;24.58;;;5.30;99.90;;;;;;4989079;28;20014;-88
2021/03/25 06:51:28;;;;;;;59.92;25.60;;;5.40;99.90;;;;;;4988315;28;20058;-84
2021/03/25 06:54:26;;;;;;;59.30;25.33;;;5.60;99.90;;;;;;4988149;28;20030;-82
2021/03/25 06:56:56;;;;;;;56.88;24.77;;;5.70;99.90;;;;;;4987161;28;20038;-81
2021/03/25 06:59:34;;;;;;;59.45;25.45;;;5.80;99.90;;;;;;4986306;28;20022;-83
2021/03/25 07:02:15;;;;;;;59.63;24.80;;;5.90;99.90;;;;;;4987877;28;20027;-84
2021/03/25 07:04:45;;;;;;;73.65;24.95;;;6.10;99.90;;;;;;4986613;28;20121;-79
2021/03/25 07:07:40;;;;;;;58.20;23.45;;;6.30;99.90;;;;;;4983959;28;20033;-80
2021/03/25 07:10:08;;;;;;;63.35;25.33;;;6.50;99.90;;;;;;4986097;28;20034;-79
2021/03/25 07:12:38;;;;;;;59.70;22.75;;;6.70;99.90;;;;;;4985670;28;20037;-80
2021/03/25 07:15:05;;;;;;;68.53;23.27;;;6.90;99.90;;;;;;4988271;28;20068;-82
2021/03/25 07:17:41;;;;;;;54.10;21.92;;;7.00;99.90;;;;;;4987191;28;20030;-80
2021/03/25 07:20:27;;;;;;;54.92;23.27;;;7.10;99.90;;;;;;4986932;28;20034;-80
2021/03/25 07:23:15;;;;;;;59.58;23.05;;;7.20;99.90;;;;;;4989875;28;20033;-79
2021/03/25 07:25:43;;;;;;;56.65;23.00;;;7.30;99.90;;;;;;4987734;28;20035;-81
2021/03/25 07:28:16;;;;;;;60.88;23.77;;;7.40;99.90;;;;;;4985806;28;20370;-80
2021/03/25 07:30:58;;;;;;;56.45;24.40;;;7.50;99.90;;;;;;4988048;28;20113;-80
2021/03/25 07:33:27;;;;;;;57.28;23.00;;;7.60;99.90;;;;;;4985892;28;20054;-79
2021/03/25 07:36:05;;;;;;;50.00;22.13;;;7.70;99.90;;;;;;4987356;28;20173;-79
2021/03/25 07:38:34;;;;;;;62.42;24.45;;;7.80;99.90;;;;;;4986055;28;20045;-80
2021/03/25 07:41:10;;;;;;;62.95;24.30;;;7.90;99.90;;;;;;4986828;28;20117;-80
2021/03/25 07:43:52;;;;;;;62.10;22.65;;;7.90;99.90;;;;;;4986386;28;20022;-80
2021/03/25 07:46:19;;;;;;;59.20;23.52;;;8.00;99.90;;;;;;4987786;28;20470;-80
2021/03/25 07:48:56;;;;;;;59.25;23.23;;;8.00;99.90;;;;;;4983800;28;20045;-80
2021/03/25 07:51:22;;;;;;;58.20;24.48;;;8.10;99.90;;;;;;4986937;28;20035;-80
2021/03/25 07:53:48;;;;;;;66.03;23.38;;;8.20;99.90;;;;;;4985815;28;20563;-79
2021/03/25 07:56:18;;;;;;;56.58;22.73;;;8.30;99.90;;;;;;4984663;28;20074;-80
2021/03/25 07:58:46;;;;;;;55.28;23.45;;;8.30;99.90;;;;;;4987317;28;20484;-80
2021/03/25 08:01:21;;;;;;;57.67;23.05;;;8.40;99.90;;;;;;4984863;28;20042;-80
2021/03/25 08:04:00;;;;;;;59.42;22.80;;;8.40;99.90;;;;;;4985742;28;20084;-80
2021/03/25 08:06:30;;;;;;;56.30;24.00;;;8.50;99.90;;;;;;4965481;28;20037;-80
2021/03/25 08:09:10;;;;;;;50.83;22.77;;;8.60;99.90;;;;;;4978163;28;20100;-80
2021/03/25 08:12:18;;;;;;;57.78;24.35;;;8.60;99.90;;;;;;4983056;28;20084;-80
2021/03/25 08:14:44;;;;;;;64.00;23.73;;;8.80;99.90;;;;;;4944289;28;20482;-79
2021/03/25 08:17:29;;;;;;;60.88;23.77;;;8.80;99.90;;;;;;4981540;28;20027;-80
2021/03/25 08:20:13;;;;;;;68.72;24.55;;;8.90;99.90;;;;;;4982993;28;20408;-79
2021/03/25 08:23:16;;;;;;;52.33;23.02;;;9.00;99.90;;;;;;4983823;28;20038;-79
2021/03/25 08:26:08;;;;;;;55.95;23.48;;;9.10;99.90;;;;;;4977001;28;20033;-80
2021/03/25 08:28:49;;;;;;;58.97;25.50;;;9.20;99.90;;;;;;4974407;28;20022;-79
2021/03/25 08:31:26;;;;;;;69.30;26.52;;;9.40;99.90;;;;;;4977173;28;20022;-80
2021/03/25 08:34:10;;;;;;;64.05;25.30;;;9.50;99.90;;;;;;4978878;28;20042;-80
2021/03/25 08:36:47;;;;;;;58.40;24.13;;;9.70;99.90;;;;;;4975399;28;20041;-80
2021/03/25 08:39:44;;;;;;;59.83;23.52;;;9.80;99.90;;;;;;4974644;28;20022;-83
2021/03/25 08:42:34;;;;;;;62.05;24.67;;;10.00;99.90;;;;;;4976717;28;20085;-80
2021/03/25 08:45:17;;;;;;;54.63;24.58;;;10.20;99.90;;;;;;4978524;28;20109;-80
2021/03/25 08:47:56;;;;;;;62.47;25.85;;;10.30;99.90;;;;;;4983157;28;20034;-78
2021/03/25 08:50:41;;;;;;;60.25;25.38;;;10.50;99.90;;;;;;4980254;28;20027;-77
2021/03/25 08:53:36;;;;;;;60.75;24.88;;;10.70;99.90;;;;;;4980691;28;20036;-78
2021/03/25 08:56:11;;;;;;;62.38;25.20;;;10.80;99.90;;;;;;4960354;28;20198;-78
2021/03/25 08:58:38;;;;;;;65.30;24.77;;;11.00;99.90;;;;;;4974478;28;20018;-78
2021/03/25 09:01:11;;;;;;;57.50;24.88;;;11.10;99.40;;;;;;4977758;28;20081;-76
2021/03/25 09:03:53;;;;;;;59.05;25.25;;;11.20;99.80;;;;;;4976605;28;20487;-81
2021/03/25 09:06:25;;;;;;;63.35;24.60;;;11.30;99.20;;;;;;4977176;28;20034;-77
2021/03/25 09:08:59;;;;;;;57.75;26.30;;;11.40;99.30;;;;;;4978196;28;20667;-78
2021/03/25 09:11:25;;;;;;;67.28;25.67;;;11.40;98.70;;;;;;4981525;28;20178;-78
2021/03/25 09:13:56;;;;;;;60.38;23.73;;;11.40;98.20;;;;;;4979809;28;20132;-80
2021/03/25 09:16:30;;;;;;;;;;;11.40;98.50;;;;;;4981999;28;20227;-78
2021/03/25 09:18:57;;;;;;;61.28;25.70;;;11.50;97.40;;;;;;4980687;28;20443;-78
2021/03/25 09:21:26;;;;;;;57.83;26.10;;;11.50;97.80;;;;;;4978664;28;20065;-80
2021/03/25 09:24:03;;;;;;;55.83;24.05;;;11.60;96.90;;;;;;4980710;28;20041;-78
2021/03/25 09:26:29;;;;;;;57.88;25.90;;;11.70;97.10;;;;;;4977699;28;20026;-79
2021/03/25 09:29:03;;;;;;;55.83;24.38;;;11.80;96.60;;;;;;4976180;28;20119;-78
2021/03/25 09:31:34;;;;;;;60.72;25.83;;;11.80;95.90;;;;;;4980955;28;20023;-86
2021/03/25 09:34:09;;;;;;;54.08;24.52;;;11.90;95.60;;;;;;4956299;28;20104;-90
2021/03/25 09:36:34;;;;;;;54.03;24.65;;;12.00;94.80;;;;;;4957653;28;20069;-80
2021/03/25 09:39:00;;;;;;;55.63;24.20;;;12.10;94.90;;;;;;4959448;28;20026;-76
2021/03/25 09:41:29;;;;;;;54.92;24.17;;;12.20;94.40;;;;;;4960980;28;20090;-81
2021/03/25 09:44:05;;;;;;;53.55;24.58;;;12.20;93.50;;;;;;4942144;28;20040;-78
2021/03/25 09:46:40;;;;;;;54.47;24.77;;;12.30;94.60;;;;;;4960748;28;20118;-79
2021/03/25 09:49:31;;;;;;;58.83;24.58;;;12.50;95.40;;;;;;4959987;28;20038;-78
2021/03/25 09:52:09;;;;;;;54.63;23.88;;;12.70;94.70;;;;;;4962555;28;20397;-79
2021/03/25 09:54:41;;;;;;;50.90;24.17;;;12.80;93.20;;;;;;4966679;28;20026;-77
2021/03/25 09:57:17;;;;;;;;;;;12.90;91.80;;;;;;4963439;28;20034;-77
2021/03/25 09:59:51;;;;;;;53.00;22.50;;;12.90;90.70;;;;;;4965328;28;19914;-77
2021/03/25 10:02:51;;;;;;;58.97;24.02;;;13.00;90.80;;;;;;4961501;28;20034;-76
2021/03/25 10:05:33;;;;;;;57.42;24.10;;;13.00;90.40;;;;;;4959955;28;20062;-77
2021/03/25 10:08:18;;;;;;;;;;;13.10;89.20;;;;;;4962355;28;20026;-77
2021/03/25 10:10:49;;;;;;;52.35;23.08;;;13.30;91.70;;;;;;4958835;28;20391;-79
2021/03/25 10:13:35;;;;;;;58.13;23.65;;;13.50;90.40;;;;;;4958384;28;20497;-79
2021/03/25 10:16:01;;;;;;;56.38;24.95;;;13.60;90.60;;;;;;4960946;28;20446;-80
2021/03/25 10:18:27;;;;;;;49.67;23.35;;;13.70;87.40;;;;;;4965729;28;20393;-80
2021/03/25 10:21:08;;;;;;;49.97;22.23;;;13.90;87.00;;;;;;4964920;28;20498;-79
2021/03/25 10:23:44;;;;;;;49.20;24.30;;;13.90;84.50;;;;;;4966232;28;20042;-79
2021/03/25 10:26:10;;;;;;;54.90;23.58;;;14.00;82.60;;;;;;4957928;28;20494;-79
2021/03/25 10:28:51;;;;;;;49.35;22.05;;;14.00;82.20;;;;;;4960730;28;20035;-80
2021/03/25 10:31:22;;;;;;;54.42;23.52;;;14.00;85.30;;;;;;4963091;28;20030;-79
2021/03/25 10:33:51;;;;;;;57.03;22.95;;;14.20;82.20;;;;;;4983043;28;20054;-81
2021/03/25 10:36:27;;;;;;;53.70;24.60;;;14.40;79.10;;;;;;4984125;28;20034;-76
2021/03/25 10:39:01;;;;;;;55.30;24.65;;;14.50;77.80;;;;;;4978076;28;20026;-77
2021/03/25 10:41:34;;;;;;;48.10;22.08;;;14.60;76.90;;;;;;4979599;28;20034;-79
2021/03/25 10:44:26;;;;;;;50.95;23.25;;;14.90;74.70;;;;;;4978771;28;20041;-86
2021/03/25 10:46:54;;;;;;;57.20;24.02;;;15.00;72.70;;;;;;4982151;28;20108;-85
2021/03/25 10:49:25;;;;;;;53.47;22.05;;;15.10;71.70;;;;;;4974302;28;20439;-84
2021/03/25 10:51:52;;;;;;;52.13;23.70;;;15.20;71.20;;;;;;4978126;28;20528;-85
2021/03/25 10:54:26;;;;;;;56.75;23.95;;;15.30;71.50;;;;;;4978219;28;20035;-85
2021/03/25 10:57:20;;;;;;;50.10;23.35;;;15.50;69.30;;;;;;4978483;28;20018;-84
2021/03/25 11:00:02;;;;;;;54.72;23.17;;;15.50;69.80;;;;;;4981449;28;20433;-84
2021/03/25 11:02:36;;;;;;;50.38;23.13;;;15.60;70.60;;;;;;4983397;28;20034;-84
2021/03/25 11:05:24;;;;;;;47.78;22.30;;;15.80;68.50;;;;;;4965155;28;20181;-83
2021/03/25 11:08:03;;;;;;;49.90;24.95;;;15.90;68.20;;;;;;4976091;28;20093;-81
2021/03/25 11:10:35;;;;;;;56.47;23.60;;;16.10;69.00;;;;;;4980560;28;20529;-78
2021/03/25 11:13:27;;;;;;;50.20;22.90;;;16.40;69.80;;;;;;4983580;28;20029;-82
2021/03/25 11:19:06;;;;;;;;;;;16.80;65.80;;;;;;4974461;28;20272;-80
2021/03/25 11:21:42;;;;;;;45.75;21.45;;;17.00;64.10;;;;;;4987560;28;19925;-79
2021/03/25 11:24:20;;;;;;;53.03;22.73;;;17.10;63.90;;;;;;4975668;28;20087;-83
2021/03/25 11:26:46;;;;;;;47.63;23.02;;;17.30;64.00;;;;;;4978965;28;20525;-80
2021/03/25 11:29:16;;;;;;;47.55;21.30;;;17.50;62.70;;;;;;4978122;28;20029;-78
2021/03/25 11:31:44;;;;;;;42.78;20.35;;;17.70;62.60;;;;;;4975838;28;20473;-77
2021/03/25 11:34:22;;;;;;;50.10;19.17;;;17.90;57.40;;;;;;4987040;28;20213;-77
2021/03/25 11:36:47;;;;;;;39.95;19.60;;;17.80;57.10;;;;;;4956495;28;20149;-79
2021/03/25 11:39:19;;;;;;;39.35;19.02;;;18.00;55.40;;;;;;4981134;28;20121;-78
2021/03/25 11:41:45;;;;;;;;;;;18.20;55.60;;;;;;4972966;28;20041;-78
2021/03/25 11:44:31;;;;;;;44.83;20.35;;;18.40;54.40;;;;;;4978241;28;19913;-78
2021/03/25 11:47:21;;;;;;;46.03;20.08;;;18.60;54.50;;;;;;4971676;28;20449;-77
2021/03/25 11:49:47;;;;;;;37.85;18.58;;;18.70;53.20;;;;;;4983004;28;20552;-78
2021/03/25 11:52:13;;;;;;;41.35;19.77;;;18.80;52.30;;;;;;4981222;28;20072;-76
2021/03/25 11:54:42;;;;;;;36.60;17.08;;;18.90;52.20;;;;;;4976818;28;20421;-78
2021/03/25 11:57:33;;;;;;;43.95;15.93;;;19.10;54.50;;;;;;4981962;28;20061;-77
2021/03/25 12:00:25;;;;;;;34.92;18.52;;;19.70;51.70;;;;;;4978627;28;20024;-77
2021/03/25 12:02:53;;;;;;;42.63;20.83;;;20.20;50.40;;;;;;4967542;28;20403;-77
2021/03/25 12:05:22;;;;;;;39.75;20.40;;;20.50;50.60;;;;;;4982432;28;20089;-77
2021/03/25 12:08:00;;;;;;;40.50;19.55;;;20.90;48.30;;;;;;4978105;28;20055;-77
2021/03/25 12:10:25;;;;;;;35.85;19.25;;;21.00;48.50;;;;;;4982389;28;20031;-76
2021/03/25 12:12:51;;;;;;;40.35;21.90;;;21.50;47.90;;;;;;4985415;28;20074;-77
2021/03/25 12:15:16;;;;;;;38.70;19.77;;;21.70;47.80;;;;;;4976867;28;20037;-77
2021/03/25 12:17:52;;;;;;;37.22;18.70;;;21.90;47.50;;;;;;4980803;28;20571;-77
2021/03/25 12:20:32;;;;;;;32.85;18.23;;;22.20;44.80;;;;;;4979181;28;20429;-77
2021/03/25 12:23:15;;;;;;;35.67;18.52;;;22.10;44.10;;;;;;4974725;28;20033;-77
2021/03/25 12:25:45;;;;;;;39.78;19.27;;;21.80;43.90;;;;;;4979559;28;20611;-78
2021/03/25 12:28:12;;;;;;;37.10;18.27;;;21.90;42.80;;;;;;4973389;28;20026;-80
2021/03/25 12:30:38;;;;;;;31.75;17.52;;;22.00;43.90;;;;;;4976113;28;20026;-79
2021/03/25 12:33:05;;;;;;;41.20;20.10;;;21.90;42.90;;;;;;4977224;28;20579;-85
2021/03/25 12:35:30;;;;;;;34.60;17.50;;;21.80;44.00;;;;;;4980051;28;20034;-80
2021/03/25 12:37:56;;;;;;;38.40;18.08;;;21.30;44.20;;;;;;4976355;28;20026;-84
2021/03/25 12:40:23;;;;;;;37.83;18.02;;;21.10;44.60;;;;;;4981432;28;20073;-77
2021/03/25 12:42:50;;;;;;;38.08;19.50;;;20.80;45.00;;;;;;4959284;28;20248;-81
2021/03/25 12:45:36;;;;;;;33.67;17.60;;;21.00;44.40;;;;;;4968417;28;20486;-79
2021/03/25 12:48:02;;;;;;;31.42;16.48;;;21.10;43.50;;;;;;4980165;28;20062;-80
2021/03/25 12:50:29;;;;;;;35.17;17.73;;;21.40;43.40;;;;;;4980293;28;20026;-81
2021/03/25 12:52:55;;;;;;;35.35;17.40;;;21.70;41.70;;;;;;4978574;28;20149;-76
2021/03/25 12:55:22;;;;;;;37.85;17.65;;;21.80;41.80;;;;;;4966753;28;20057;-77
2021/03/25 12:57:50;;;;;;;38.08;18.50;;;21.80;42.10;;;;;;4976009;28;20230;-77
2021/03/25 13:00:37;;;;;;;35.30;18.77;;;21.90;42.80;;;;;;4971498;28;20235;-78
2021/03/25 13:03:04;;;;;;;37.97;18.65;;;21.20;43.20;;;;;;4974961;28;20124;-77
2021/03/25 13:05:30;;;;;;;38.08;19.20;;;21.50;44.70;;;;;;4968891;28;20181;-75
2021/03/25 13:07:55;;;;;;;39.65;17.90;;;22.10;43.70;;;;;;4967430;28;20109;-76
2021/03/25 13:10:23;;;;;;;35.40;19.80;;;22.70;42.30;;;;;;4983125;28;20026;-75
2021/03/25 13:12:49;;;;;;;36.20;18.52;;;23.30;41.50;;;;;;4983708;28;20034;-76
2021/03/25 13:15:17;;;;;;;33.92;18.73;;;23.60;41.00;;;;;;4982330;28;20026;-75
2021/03/25 13:17:43;;;;;;;41.17;19.95;;;23.60;40.40;;;;;;4983515;28;20493;-75
2021/03/25 13:20:11;;;;;;;37.92;17.85;;;23.40;40.50;;;;;;4983669;28;20032;-75